Afton, California
Current Conditions -  °F | °C
As of 11:53 PM on Saturday 25 Oct 2014 (Local Time) from KOVE Reporting Station
Broken Clouds Broken Clouds  
Wind Chill: 59°   Ceiling: 6500
Heat Index: 59°   Visibility: 10mi
Dew Point: 54°   Wind: 10mph
Humidity: 83%   Direction: 160°SSE
Pressure: 30.11"   Gusts: NA
Location:  39.4608°N, 121.937°W
Report Text: KOVE 260653Z AUTO 16009KT 10SM BKN065 15/12 A3011 RMK AO2 SLP199 T01500122
Loading
Personal Weather Stations






























Interactive Weather Map
Tropical Storm Tracking
New forecast layout! Learn more

10-Day Weather Forecast

Advertisements
Track Severe Weather on mobile